createdAt,value
2023-12-24T00:01:19.913Z,1.40
2023-12-24T00:03:47.258Z,1.40
2023-12-24T00:06:15.340Z,1.57
2023-12-24T00:08:42.771Z,1.60
2023-12-24T00:11:09.872Z,1.60
2023-12-24T00:13:37.137Z,1.40
2023-12-24T00:16:04.570Z,0.90
2023-12-24T00:18:31.758Z,1.70
2023-12-24T00:20:59.371Z,1.60
2023-12-24T00:23:26.487Z,1.40
2023-12-24T00:25:53.540Z,1.30
2023-12-24T00:28:20.746Z,1.03
2023-12-24T00:30:48.005Z,1.10
2023-12-24T00:33:15.431Z,1.37
2023-12-24T00:35:42.846Z,1.13
2023-12-24T00:38:10.093Z,1.53
2023-12-24T00:40:37.307Z,1.00
2023-12-24T00:43:04.656Z,1.40
2023-12-24T00:45:32.007Z,1.17
2023-12-24T00:47:59.689Z,1.00
2023-12-24T00:50:27.283Z,1.13
2023-12-24T00:52:55.014Z,1.30
2023-12-24T00:55:22.513Z,1.50
2023-12-24T00:57:49.783Z,1.57
2023-12-24T01:00:17.827Z,1.67
2023-12-24T01:02:45.638Z,1.60
2023-12-24T01:05:13.008Z,1.60
2023-12-24T01:07:40.316Z,1.30
2023-12-24T01:10:07.881Z,1.20
2023-12-24T01:12:35.190Z,1.33
2023-12-24T01:15:02.425Z,1.43
2023-12-24T01:17:29.666Z,1.40
2023-12-24T01:19:59.057Z,1.40
2023-12-24T01:22:26.430Z,1.50
2023-12-24T01:24:53.593Z,1.43
2023-12-24T01:27:20.841Z,1.10
2023-12-24T01:29:49.514Z,1.30
2023-12-24T01:32:16.694Z,1.30
2023-12-24T01:34:43.974Z,1.60
2023-12-24T01:37:11.075Z,1.37
2023-12-24T01:39:38.110Z,1.47
2023-12-24T01:42:05.647Z,1.37
2023-12-24T01:44:32.861Z,1.10
2023-12-24T01:47:00.331Z,1.47
2023-12-24T01:49:27.586Z,1.63
2023-12-24T01:51:56.799Z,1.10
2023-12-24T01:54:26.032Z,1.23
2023-12-24T01:56:53.592Z,1.30
2023-12-24T01:59:21.303Z,1.30
2023-12-24T02:01:48.841Z,1.10
2023-12-24T02:04:17.564Z,1.33
2023-12-24T02:06:44.680Z,1.10
2023-12-24T02:09:11.685Z,1.27
2023-12-24T02:11:38.952Z,1.30
2023-12-24T02:14:06.804Z,1.40
2023-12-24T02:16:39.073Z,1.30
2023-12-24T02:19:07.887Z,1.40
2023-12-24T02:21:34.998Z,1.20
2023-12-24T02:24:02.197Z,1.50
2023-12-24T02:26:41.162Z,1.30
2023-12-24T02:29:28.243Z,1.43
2023-12-24T02:32:04.737Z,1.37
2023-12-24T02:34:34.536Z,1.30
2023-12-24T02:37:01.804Z,1.07
2023-12-24T02:39:28.939Z,1.27
2023-12-24T02:41:56.042Z,1.57
2023-12-24T02:44:23.171Z,1.20
2023-12-24T02:46:50.280Z,1.30
2023-12-24T02:49:18.022Z,1.43
2023-12-24T02:51:45.143Z,1.40
2023-12-24T02:54:12.249Z,1.30
2023-12-24T02:56:39.486Z,1.30
2023-12-24T02:59:06.732Z,1.10
2023-12-24T03:01:33.817Z,1.30
2023-12-24T03:04:01.156Z,1.20
2023-12-24T03:06:28.375Z,1.13
2023-12-24T03:08:55.609Z,0.90
2023-12-24T03:11:22.881Z,1.20
2023-12-24T03:13:49.957Z,1.20
2023-12-24T03:16:18.668Z,1.27
2023-12-24T03:18:45.858Z,1.10
2023-12-24T03:21:13.182Z,1.67
2023-12-24T03:23:40.276Z,1.23
2023-12-24T03:26:07.476Z,1.20
2023-12-24T03:28:34.713Z,1.10
2023-12-24T03:31:01.911Z,1.00
2023-12-24T03:33:29.153Z,0.90
2023-12-24T03:35:56.312Z,0.80
2023-12-24T03:38:23.592Z,0.90
2023-12-24T03:40:50.774Z,0.90
2023-12-24T03:43:17.827Z,1.10
2023-12-24T03:45:45.193Z,1.13
2023-12-24T03:48:13.652Z,1.00
2023-12-24T03:50:41.048Z,1.43
2023-12-24T03:53:08.468Z,0.90
2023-12-24T03:55:35.678Z,0.90
2023-12-24T03:58:02.881Z,1.13
2023-12-24T04:00:30.103Z,1.20
2023-12-24T04:02:58.124Z,1.00
2023-12-24T04:05:25.473Z,0.90
2023-12-24T04:07:52.820Z,0.90
2023-12-24T04:10:20.116Z,1.00
2023-12-24T04:12:47.138Z,0.83
2023-12-24T04:15:14.318Z,1.37
2023-12-24T04:17:41.711Z,1.27
2023-12-24T04:20:09.191Z,1.10
2023-12-24T04:22:36.439Z,0.90
2023-12-24T04:25:03.681Z,0.90
2023-12-24T04:27:30.826Z,1.10
2023-12-24T04:30:01.134Z,1.07
2023-12-24T04:32:28.414Z,1.00
2023-12-24T04:34:55.760Z,1.10
2023-12-24T04:37:22.922Z,0.80
2023-12-24T04:39:50.290Z,0.93
2023-12-24T04:42:17.488Z,1.03
2023-12-24T04:44:44.668Z,0.93
2023-12-24T04:47:12.451Z,1.00
2023-12-24T04:49:39.811Z,1.00
2023-12-24T04:52:07.337Z,0.80
2023-12-24T04:54:34.619Z,0.80
2023-12-24T04:57:01.662Z,0.97
2023-12-24T04:59:28.838Z,0.97
2023-12-24T05:01:55.967Z,1.03
2023-12-24T05:04:23.005Z,1.10
2023-12-24T05:06:50.188Z,0.97
2023-12-24T05:09:17.401Z,1.20
2023-12-24T05:11:44.489Z,0.70
2023-12-24T05:14:11.602Z,1.00
2023-12-24T05:16:38.927Z,1.10
2023-12-24T05:19:05.979Z,1.27
2023-12-24T05:21:33.194Z,1.07
2023-12-24T05:24:00.305Z,0.97
2023-12-24T05:26:27.518Z,1.10
2023-12-24T05:28:55.371Z,1.80
2023-12-24T05:31:22.674Z,0.90
2023-12-24T05:33:49.808Z,1.20
2023-12-24T05:36:16.951Z,0.60
2023-12-24T05:38:44.318Z,1.10
2023-12-24T05:41:12.088Z,1.23
2023-12-24T05:43:39.327Z,1.10
2023-12-24T05:46:15.344Z,0.97
2023-12-24T05:48:43.464Z,0.90
2023-12-24T05:51:11.015Z,1.40
2023-12-24T05:53:38.254Z,1.17
2023-12-24T05:56:05.501Z,0.90
2023-12-24T05:58:32.716Z,0.97
2023-12-24T06:01:00.253Z,1.00
2023-12-24T06:03:27.477Z,1.70
2023-12-24T06:05:56.147Z,0.93
2023-12-24T06:08:24.647Z,1.30
2023-12-24T06:10:51.813Z,0.90
2023-12-24T06:13:18.967Z,1.60
2023-12-24T06:15:46.205Z,1.30
2023-12-24T06:18:15.158Z,1.00
2023-12-24T06:20:42.498Z,1.50
2023-12-24T06:23:09.733Z,1.00
2023-12-24T06:25:37.869Z,1.20
2023-12-24T06:28:06.157Z,1.13
2023-12-24T06:30:33.277Z,1.00
2023-12-24T06:33:00.480Z,1.20
2023-12-24T06:35:28.904Z,0.97
2023-12-24T06:37:56.135Z,0.90
2023-12-24T06:40:23.244Z,1.03
2023-12-24T06:42:51.195Z,1.10
2023-12-24T06:45:18.643Z,1.20
2023-12-24T06:47:45.927Z,1.40
2023-12-24T06:50:13.102Z,0.90
2023-12-24T06:52:40.338Z,1.00
2023-12-24T06:55:07.938Z,1.43
2023-12-24T06:57:35.045Z,1.17
2023-12-24T07:00:02.273Z,1.50
2023-12-24T07:02:29.494Z,1.37
2023-12-24T07:04:56.662Z,1.00
2023-12-24T07:07:23.817Z,1.40
2023-12-24T07:09:50.948Z,1.23
2023-12-24T07:12:18.042Z,0.93
2023-12-24T07:14:45.354Z,1.00
2023-12-24T07:17:12.526Z,1.00
2023-12-24T07:19:39.653Z,1.07
2023-12-24T07:22:06.853Z,1.07
2023-12-24T07:24:33.952Z,0.97
2023-12-24T07:27:01.120Z,1.40
2023-12-24T07:29:28.335Z,0.97
2023-12-24T07:31:55.457Z,1.50
2023-12-24T07:34:22.710Z,1.67
2023-12-24T07:36:49.989Z,1.10
2023-12-24T07:39:17.121Z,1.20
2023-12-24T07:41:44.304Z,1.10
2023-12-24T07:44:11.539Z,1.10
2023-12-24T07:46:38.718Z,1.13
2023-12-24T07:49:05.954Z,1.10
2023-12-24T07:51:33.962Z,1.13
2023-12-24T07:54:01.172Z,1.10
2023-12-24T07:56:28.259Z,1.10
2023-12-24T07:58:55.596Z,1.00
2023-12-24T08:01:22.954Z,1.17
2023-12-24T08:03:50.077Z,1.00
2023-12-24T08:06:28.033Z,1.43
2023-12-24T08:08:59.878Z,1.70
2023-12-24T08:11:28.353Z,1.50
2023-12-24T08:13:55.733Z,1.63
2023-12-24T08:16:23.069Z,1.40
2023-12-24T08:18:50.302Z,1.43
2023-12-24T08:21:17.562Z,1.30
2023-12-24T08:23:44.929Z,1.50
2023-12-24T08:26:14.760Z,1.57
2023-12-24T08:28:42.266Z,1.37
2023-12-24T08:31:09.490Z,1.80
2023-12-24T08:33:36.727Z,1.50
2023-12-24T08:36:05.251Z,1.30
2023-12-24T08:38:32.453Z,1.77
2023-12-24T08:40:59.832Z,1.50
2023-12-24T08:43:27.005Z,1.60
2023-12-24T08:45:54.062Z,1.60
2023-12-24T08:48:21.483Z,1.70
2023-12-24T08:50:48.964Z,1.80
2023-12-24T08:53:16.826Z,1.87
2023-12-24T08:55:43.992Z,1.30
2023-12-24T08:58:11.170Z,1.53
2023-12-24T09:00:38.320Z,1.73
2023-12-24T09:03:05.726Z,1.37
2023-12-24T09:05:32.905Z,1.67
2023-12-24T09:08:00.007Z,1.50
2023-12-24T09:10:27.138Z,1.53
2023-12-24T09:12:54.611Z,1.60
2023-12-24T09:15:21.891Z,1.37
2023-12-24T09:17:49.212Z,1.47
2023-12-24T09:20:16.531Z,1.50
2023-12-24T09:22:43.742Z,1.30
2023-12-24T09:25:10.979Z,1.23
2023-12-24T09:27:38.092Z,3.47
2023-12-24T09:30:06.246Z,1.20
2023-12-24T09:32:33.990Z,1.60
2023-12-24T09:35:02.109Z,1.80
2023-12-24T09:37:29.403Z,1.70
2023-12-24T09:39:56.578Z,1.20
2023-12-24T09:42:24.058Z,1.13
2023-12-24T09:44:51.270Z,1.20
2023-12-24T09:47:18.501Z,1.63
2023-12-24T09:49:45.700Z,1.50
2023-12-24T09:52:12.851Z,1.63
2023-12-24T09:54:40.708Z,2.47
2023-12-24T09:57:08.466Z,1.80
2023-12-24T09:59:35.882Z,2.17
2023-12-24T10:02:03.157Z,1.50
2023-12-24T10:04:30.206Z,2.00
2023-12-24T10:06:59.063Z,2.17
2023-12-24T10:09:46.675Z,1.80
2023-12-24T10:12:14.222Z,2.13
2023-12-24T10:14:42.954Z,2.27
2023-12-24T10:17:10.226Z,1.93
2023-12-24T10:19:37.679Z,1.67
2023-12-24T10:22:10.012Z,1.50
2023-12-24T10:24:42.208Z,1.50
2023-12-24T10:27:11.825Z,1.40
2023-12-24T10:29:41.082Z,2.03
2023-12-24T10:32:12.346Z,1.63
2023-12-24T10:34:41.207Z,1.70
2023-12-24T10:37:19.792Z,2.20
2023-12-24T10:39:48.303Z,2.10
2023-12-24T10:42:15.725Z,1.57
2023-12-24T10:44:44.141Z,1.50
2023-12-24T10:47:11.656Z,2.50
2023-12-24T10:49:39.485Z,1.80
2023-12-24T10:52:07.026Z,2.17
2023-12-24T10:54:36.017Z,1.90
2023-12-24T10:57:18.189Z,2.00
2023-12-24T11:00:15.512Z,2.30
2023-12-24T11:02:47.839Z,2.00
2023-12-24T11:05:48.147Z,2.07
2023-12-24T11:08:21.684Z,1.80
2023-12-24T11:10:58.002Z,1.63
2023-12-24T11:13:34.632Z,1.43
2023-12-24T11:16:06.130Z,1.97
2023-12-24T11:18:58.174Z,1.43
2023-12-24T11:21:25.307Z,1.93
2023-12-24T11:24:12.727Z,2.03
2023-12-24T11:26:50.113Z,1.63
2023-12-24T11:29:42.290Z,1.70
2023-12-24T11:32:28.538Z,1.80
2023-12-24T11:34:58.728Z,1.97
2023-12-24T11:37:29.438Z,1.77
2023-12-24T11:40:02.635Z,2.00
2023-12-24T11:42:48.292Z,2.13
2023-12-24T11:45:20.523Z,2.03
2023-12-24T11:47:47.793Z,1.97
2023-12-24T11:50:15.182Z,2.00
2023-12-24T11:52:47.538Z,1.80
2023-12-24T11:55:19.155Z,1.97
2023-12-24T11:57:47.140Z,1.97
2023-12-24T12:00:15.538Z,2.10
2023-12-24T12:02:43.648Z,2.30
2023-12-24T12:05:11.529Z,1.63
2023-12-24T12:07:39.009Z,1.77
2023-12-24T12:10:06.488Z,2.13
2023-12-24T12:12:33.625Z,1.90
2023-12-24T12:15:01.290Z,2.20
2023-12-24T12:17:28.998Z,2.50
2023-12-24T12:19:56.194Z,1.90
2023-12-24T12:22:23.306Z,1.83
2023-12-24T12:24:50.372Z,2.50
2023-12-24T12:27:17.954Z,2.37
2023-12-24T12:29:45.661Z,2.67
2023-12-24T12:32:12.935Z,2.40
2023-12-24T12:34:42.221Z,2.03
2023-12-24T12:37:10.076Z,1.93
2023-12-24T12:39:37.859Z,1.90
2023-12-24T12:42:05.924Z,2.50
2023-12-24T12:44:33.189Z,2.00
2023-12-24T12:47:01.139Z,2.77
2023-12-24T12:49:28.281Z,2.13
2023-12-24T12:51:55.683Z,2.60
2023-12-24T12:54:22.850Z,2.13
2023-12-24T12:56:50.216Z,1.70
2023-12-24T12:59:24.647Z,1.50
2023-12-24T13:01:52.087Z,1.83
2023-12-24T13:04:23.803Z,1.87
2023-12-24T13:06:58.848Z,1.90
2023-12-24T13:09:25.921Z,2.47
2023-12-24T13:12:05.787Z,2.50
2023-12-24T13:14:33.987Z,2.23
2023-12-24T13:17:12.288Z,2.70
2023-12-24T13:19:40.283Z,2.60
2023-12-24T13:22:07.852Z,2.53
2023-12-24T13:24:35.224Z,2.50
2023-12-24T13:27:02.572Z,2.10
2023-12-24T13:29:30.905Z,2.70
2023-12-24T13:31:58.505Z,2.90
2023-12-24T13:34:25.672Z,2.23
2023-12-24T13:36:52.907Z,2.20
2023-12-24T13:39:20.673Z,2.87
2023-12-24T13:41:48.069Z,2.97
2023-12-24T13:44:16.026Z,2.73
2023-12-24T13:46:43.253Z,1.87
2023-12-24T13:49:10.384Z,3.03
2023-12-24T13:51:37.660Z,2.80
2023-12-24T13:54:05.149Z,2.93
2023-12-24T13:56:35.066Z,3.30
2023-12-24T13:59:03.987Z,3.43
2023-12-24T14:01:32.338Z,3.43
2023-12-24T14:03:59.420Z,3.40
2023-12-24T14:06:27.263Z,2.50
2023-12-24T14:08:54.642Z,3.10
2023-12-24T14:11:21.729Z,2.90
2023-12-24T14:13:48.877Z,3.00
2023-12-24T14:16:16.160Z,2.50
2023-12-24T14:18:43.542Z,2.67
2023-12-24T14:21:10.737Z,3.20
2023-12-24T14:23:37.984Z,2.83
2023-12-24T14:26:05.156Z,3.03
2023-12-24T14:28:32.358Z,3.77
2023-12-24T14:30:59.559Z,2.87
2023-12-24T14:33:26.766Z,3.07
2023-12-24T14:35:54.030Z,2.63
2023-12-24T14:38:21.396Z,2.80
2023-12-24T14:40:49.109Z,2.87
2023-12-24T14:43:16.284Z,3.10
2023-12-24T14:45:43.543Z,3.00
2023-12-24T14:48:10.795Z,2.80
2023-12-24T14:50:38.103Z,2.70
2023-12-24T14:53:05.289Z,3.13
2023-12-24T14:55:32.479Z,3.00
2023-12-24T14:57:59.588Z,3.77
2023-12-24T15:00:26.879Z,3.20
2023-12-24T15:02:55.218Z,2.90
2023-12-24T15:05:22.605Z,3.50
2023-12-24T15:07:49.829Z,2.93
2023-12-24T15:10:16.882Z,2.77
2023-12-24T15:12:43.931Z,2.53
2023-12-24T15:15:11.457Z,3.23
2023-12-24T15:17:38.553Z,2.37
2023-12-24T15:20:07.144Z,3.53
2023-12-24T15:22:34.361Z,3.00
2023-12-24T15:25:01.371Z,3.20
2023-12-24T15:27:28.721Z,2.83
2023-12-24T15:29:55.922Z,2.47
2023-12-24T15:32:24.299Z,3.13
2023-12-24T15:34:51.613Z,3.47
2023-12-24T15:37:19.040Z,3.27
2023-12-24T15:39:46.301Z,3.63
2023-12-24T15:42:13.364Z,2.80
2023-12-24T15:44:40.709Z,3.20
2023-12-24T15:47:07.830Z,2.70
2023-12-24T15:49:35.161Z,2.70
2023-12-24T15:52:02.490Z,2.87
2023-12-24T15:54:29.695Z,2.67
2023-12-24T15:56:56.809Z,1.70
2023-12-24T15:59:24.062Z,2.70
2023-12-24T16:01:52.378Z,2.23
2023-12-24T16:04:19.589Z,2.83
2023-12-24T16:06:46.947Z,3.30
2023-12-24T16:09:14.173Z,2.00
2023-12-24T16:11:42.954Z,2.40
2023-12-24T16:14:10.399Z,2.73
2023-12-24T16:16:37.588Z,3.03
2023-12-24T16:19:05.209Z,3.73
2023-12-24T16:21:37.232Z,3.03
2023-12-24T16:24:05.809Z,4.00
2023-12-24T16:26:33.249Z,3.70
2023-12-24T16:29:00.629Z,3.70
2023-12-24T16:31:28.206Z,3.60
2023-12-24T16:33:55.362Z,3.73
2023-12-24T16:36:26.192Z,3.47
2023-12-24T16:38:54.775Z,4.43
2023-12-24T16:41:22.797Z,4.97
2023-12-24T16:43:50.621Z,4.00
2023-12-24T16:46:17.789Z,4.47
2023-12-24T16:48:45.128Z,4.43
2023-12-24T16:51:21.718Z,3.93
2023-12-24T16:53:49.786Z,4.10
2023-12-24T16:56:17.317Z,4.47
2023-12-24T16:58:45.602Z,3.20
2023-12-24T17:01:12.806Z,3.57
2023-12-24T17:03:40.254Z,4.73
2023-12-24T17:06:10.944Z,3.00
2023-12-24T17:08:39.621Z,4.00
2023-12-24T17:11:08.113Z,4.17
2023-12-24T17:13:35.405Z,4.60
2023-12-24T17:16:03.897Z,4.73
2023-12-24T17:18:31.484Z,4.93
2023-12-24T17:20:59.194Z,4.50
2023-12-24T17:23:26.429Z,4.13
2023-12-24T17:25:53.609Z,3.80
2023-12-24T17:28:20.941Z,3.67
2023-12-24T17:30:48.019Z,4.47
2023-12-24T17:33:15.335Z,3.80
2023-12-24T17:35:44.019Z,3.90
2023-12-24T17:38:11.194Z,4.67
2023-12-24T17:40:38.394Z,4.07
2023-12-24T17:43:05.647Z,4.50
2023-12-24T17:45:32.845Z,6.07
2023-12-24T17:48:09.312Z,4.70
2023-12-24T17:50:45.040Z,4.07
2023-12-24T17:53:13.148Z,4.13
2023-12-24T17:55:40.334Z,3.70
2023-12-24T17:58:07.537Z,3.83
2023-12-24T18:00:34.800Z,3.97
2023-12-24T18:03:02.141Z,3.27
2023-12-24T18:05:29.870Z,3.40
2023-12-24T18:07:57.057Z,2.80
2023-12-24T18:10:24.159Z,3.60
2023-12-24T18:12:51.811Z,3.60
2023-12-24T18:15:19.016Z,3.83
2023-12-24T18:17:46.271Z,3.67
2023-12-24T18:20:15.312Z,4.10
2023-12-24T18:22:42.633Z,3.33
2023-12-24T18:25:09.817Z,3.10
2023-12-24T18:27:37.263Z,4.37
2023-12-24T18:30:04.687Z,3.30
2023-12-24T18:32:31.951Z,4.17
2023-12-24T18:35:00.156Z,3.90
2023-12-24T18:37:31.061Z,3.73
2023-12-24T18:39:58.317Z,3.20
2023-12-24T18:42:25.688Z,3.07
2023-12-24T18:44:53.010Z,3.30
2023-12-24T18:47:20.180Z,3.50
2023-12-24T18:49:47.625Z,3.60
2023-12-24T18:52:14.676Z,3.03
2023-12-24T18:54:45.726Z,4.03
2023-12-24T18:57:14.422Z,3.27
2023-12-24T18:59:42.084Z,2.73
2023-12-24T19:02:09.219Z,3.67
2023-12-24T19:04:36.372Z,3.73
2023-12-24T19:07:06.320Z,3.30
2023-12-24T19:09:35.012Z,4.13
2023-12-24T19:12:02.337Z,3.70
2023-12-24T19:14:29.538Z,3.60
2023-12-24T19:16:56.733Z,3.13
2023-12-24T19:19:24.003Z,2.90
2023-12-24T19:21:51.203Z,2.80
2023-12-24T19:24:23.131Z,3.07
2023-12-24T19:26:50.583Z,3.30
2023-12-24T19:29:18.980Z,3.53
2023-12-24T19:31:46.052Z,3.37
2023-12-24T19:34:13.812Z,3.60
2023-12-24T19:36:40.872Z,3.33
2023-12-24T19:39:07.996Z,3.40
2023-12-24T19:41:35.361Z,3.30
2023-12-24T19:44:02.561Z,3.63
2023-12-24T19:46:29.611Z,3.70
2023-12-24T19:48:57.281Z,3.03
2023-12-24T19:51:24.670Z,3.27
2023-12-24T19:53:53.311Z,3.30
2023-12-24T19:56:20.660Z,3.83
2023-12-24T19:58:52.130Z,3.10
2023-12-24T20:01:28.346Z,3.07
2023-12-24T20:04:02.425Z,2.70
2023-12-24T20:06:29.855Z,3.00
2023-12-24T20:08:57.171Z,4.43
2023-12-24T20:11:24.631Z,3.13
2023-12-24T20:13:51.888Z,3.40
2023-12-24T20:16:18.910Z,4.93
2023-12-24T20:18:46.140Z,3.10
2023-12-24T20:21:13.376Z,3.23
2023-12-24T20:23:40.449Z,2.73
2023-12-24T20:26:08.902Z,3.33
2023-12-24T20:28:36.168Z,3.33
2023-12-24T20:31:03.634Z,3.70
2023-12-24T20:33:30.907Z,3.00
2023-12-24T20:35:58.047Z,3.30
2023-12-24T20:38:25.091Z,2.53
2023-12-24T20:40:52.943Z,3.10
2023-12-24T20:43:19.958Z,2.87
2023-12-24T20:45:46.947Z,2.93
2023-12-24T20:48:14.314Z,2.60
2023-12-24T20:50:41.478Z,2.57
2023-12-24T20:53:08.587Z,2.17
2023-12-24T20:55:35.793Z,2.63
2023-12-24T20:58:02.839Z,2.23
2023-12-24T21:00:29.948Z,2.30
2023-12-24T21:02:57.702Z,2.50
2023-12-24T21:05:25.000Z,2.30
2023-12-24T21:07:52.731Z,2.60
2023-12-24T21:10:19.925Z,2.83
2023-12-24T21:12:46.975Z,2.50
2023-12-24T21:15:14.180Z,2.40
2023-12-24T21:17:43.512Z,2.50
2023-12-24T21:20:11.736Z,3.10
2023-12-24T21:22:38.869Z,2.33
2023-12-24T21:25:06.689Z,2.10
2023-12-24T21:27:34.372Z,2.30
2023-12-24T21:30:01.672Z,2.33
2023-12-24T21:32:28.944Z,3.13
2023-12-24T21:34:56.669Z,2.00
2023-12-24T21:37:23.798Z,2.80
2023-12-24T21:39:51.157Z,1.80
2023-12-24T21:42:18.229Z,2.50
2023-12-24T21:44:45.419Z,2.43
2023-12-24T21:47:12.797Z,1.70
2023-12-24T21:49:39.899Z,2.00
2023-12-24T21:52:07.266Z,3.40
2023-12-24T21:54:35.873Z,2.03
2023-12-24T21:57:04.668Z,1.63
2023-12-24T21:59:31.760Z,1.67
2023-12-24T22:01:59.052Z,1.73
2023-12-24T22:04:26.307Z,2.17
2023-12-24T22:06:53.472Z,2.23
2023-12-24T22:09:21.036Z,1.87
2023-12-24T22:11:48.229Z,2.00
2023-12-24T22:14:15.424Z,1.60
2023-12-24T22:16:42.739Z,1.93
2023-12-24T22:19:10.126Z,1.80
2023-12-24T22:21:45.271Z,1.47
2023-12-24T22:24:14.939Z,1.80
2023-12-24T22:26:42.415Z,1.97
2023-12-24T22:29:09.690Z,1.93
2023-12-24T22:31:36.804Z,1.83
2023-12-24T22:34:04.154Z,2.10
2023-12-24T22:36:31.648Z,1.73
2023-12-24T22:39:00.725Z,1.60
2023-12-24T22:41:29.046Z,1.90
2023-12-24T22:43:56.707Z,1.43
2023-12-24T22:46:23.845Z,1.63
2023-12-24T22:48:51.198Z,1.43
2023-12-24T22:51:18.546Z,1.53
2023-12-24T22:53:45.685Z,1.43
2023-12-24T22:56:13.195Z,1.40
2023-12-24T22:58:40.610Z,1.20
2023-12-24T23:01:11.592Z,1.17
2023-12-24T23:03:40.289Z,1.30
2023-12-24T23:06:09.456Z,1.50
2023-12-24T23:08:37.595Z,1.20
2023-12-24T23:11:05.148Z,1.20
2023-12-24T23:13:32.431Z,1.70
2023-12-24T23:15:59.710Z,1.57
2023-12-24T23:18:27.109Z,1.20
2023-12-24T23:20:54.460Z,1.20
2023-12-24T23:23:21.573Z,1.20
2023-12-24T23:25:49.007Z,2.03
2023-12-24T23:28:16.150Z,1.40
2023-12-24T23:30:43.350Z,1.40
2023-12-24T23:33:10.723Z,1.00
2023-12-24T23:35:38.542Z,1.23
2023-12-24T23:38:06.148Z,1.20
2023-12-24T23:40:33.499Z,1.20
2023-12-24T23:43:00.592Z,1.20
2023-12-24T23:45:27.695Z,1.13
2023-12-24T23:47:55.614Z,1.63
2023-12-24T23:50:23.082Z,1.10
2023-12-24T23:52:50.236Z,1.40
2023-12-24T23:55:17.390Z,1.37
2023-12-24T23:57:45.133Z,1.00
